Time;durP1;ratioP1;P1;durP2;ratioP2;P2;SDS_P1;SDS_P2;PMS_P1;PMS_P2;Temp;Humidity;BMP_temperature;BMP_pressure;BME280_temperature;BME280_humidity;BME280_pressure;Samples;Min_cycle;Max_cycle;Signal;HPM_P1;HPM_P2
2023/03/17 00:01:13;;;;;;;5.10;4.80;;;;;;;;;;5032645;28;20447;-62
2023/03/17 00:03:43;;;;;;;5.60;4.87;;;;;;;;;;5032333;28;20386;-62
2023/03/17 00:06:18;;;;;;;5.65;4.72;;;;;;;;;;5032216;28;20443;-61
2023/03/17 00:08:45;;;;;;;7.57;4.40;;;;;;;;;;5032400;28;20188;-61
2023/03/17 00:11:12;;;;;;;5.73;5.23;;;;;;;;;;5032101;28;20181;-61
2023/03/17 00:13:39;;;;;;;10.80;4.90;;;;;;;;;;5032157;28;20501;-62
2023/03/17 00:16:10;;;;;;;6.10;5.15;;;;;;;;;;5032361;28;20486;-61
2023/03/17 00:18:38;;;;;;;6.30;5.23;;;;;;;;;;5032035;28;20164;-61
2023/03/17 00:21:07;;;;;;;5.80;5.32;;;;;;;;;;5032446;28;20367;-61
2023/03/17 00:23:34;;;;;;;9.20;4.83;;;;;;;;;;5031970;28;20205;-61
2023/03/17 00:26:01;;;;;;;5.97;5.55;;;;;;;;;;5032127;28;20435;-62
2023/03/17 00:28:27;;;;;;;6.43;5.75;;;;;;;;;;5032010;28;20201;-61
2023/03/17 00:30:54;;;;;;;6.03;5.50;;;;;;;;;;5032098;28;20188;-61
2023/03/17 00:33:25;;;;;;;5.73;5.03;;;;;;;;;;5031652;28;20220;-61
2023/03/17 00:35:51;;;;;;;8.03;6.03;;;;;;;;;;5031837;28;20382;-61
2023/03/17 00:38:23;;;;;;;7.53;6.13;;;;;;;;;;5031950;28;20414;-62
2023/03/17 00:40:49;;;;;;;7.45;6.15;;;;;;;;;;5031792;28;20402;-62
2023/03/17 00:43:16;;;;;;;6.00;5.60;;;;;;;;;;5014028;28;20211;-63
2023/03/17 00:45:43;;;;;;;16.37;5.80;;;;;;;;;;5031675;28;20393;-62
2023/03/17 00:48:21;;;;;;;6.17;5.67;;;;;;;;;;5031523;28;20462;-61
2023/03/17 00:50:48;;;;;;;6.70;6.10;;;;;;;;;;5031495;28;20414;-62
2023/03/17 00:53:16;;;;;;;6.20;5.60;;;;;;;;;;5031377;28;20575;-61
2023/03/17 00:55:43;;;;;;;6.63;5.90;;;;;;;;;;5013752;28;20181;-61
2023/03/17 00:58:12;;;;;;;7.32;5.60;;;;;;;;;;5031449;28;20239;-61
2023/03/17 01:00:38;;;;;;;5.60;5.20;;;;;;;;;;5031400;28;20165;-62
2023/03/17 01:03:04;;;;;;;5.77;5.37;;;;;;;;;;5030998;28;20931;-62
2023/03/17 01:05:30;;;;;;;7.27;5.40;;;;;;;;;;5016173;28;20405;-61
2023/03/17 01:07:57;;;;;;;7.63;4.90;;;;;;;;;;5035142;28;20444;-61
2023/03/17 01:10:25;;;;;;;5.57;5.17;;;;;;;;;;5034756;28;20426;-61
2023/03/17 01:12:52;;;;;;;5.33;4.97;;;;;;;;;;5034905;28;20569;-61
2023/03/17 01:15:21;;;;;;;6.13;5.63;;;;;;;;;;5034216;28;20402;-62
2023/03/17 01:17:48;;;;;;;6.03;5.47;;;;;;;;;;5035146;28;20153;-62
2023/03/17 01:20:25;;;;;;;5.55;5.05;;;;;;;;;;5034469;28;20486;-61
2023/03/17 01:22:51;;;;;;;8.63;4.85;;;;;;;;;;5034768;28;20259;-62
2023/03/17 01:25:20;;;;;;;5.88;5.47;;;;;;;;;;5034263;28;20223;-62
2023/03/17 01:27:46;;;;;;;5.60;5.10;;;;;;;;;;5034757;28;20658;-61
2023/03/17 01:30:13;;;;;;;7.75;5.78;;;;;;;;;;5042582;28;20425;-61
2023/03/17 01:32:39;;;;;;;14.23;5.50;;;;;;;;;;5054921;28;20208;-62
2023/03/17 01:35:05;;;;;;;5.00;4.60;;;;;;;;;;5054572;28;20479;-63
2023/03/17 01:37:31;;;;;;;5.95;4.93;;;;;;;;;;5054376;28;20856;-62
2023/03/17 01:39:58;;;;;;;5.13;4.82;;;;;;;;;;5054521;28;20554;-62
2023/03/17 01:42:24;;;;;;;4.55;4.10;;;;;;;;;;5054120;28;20264;-61
2023/03/17 01:45:00;;;;;;;5.30;4.90;;;;;;;;;;5036126;28;20293;-61
2023/03/17 01:47:30;;;;;;;4.88;4.43;;;;;;;;;;5054333;28;20438;-61
2023/03/17 01:49:59;;;;;;;4.57;4.37;;;;;;;;;;5054457;28;20184;-62
2023/03/17 01:52:25;;;;;;;7.68;5.22;;;;;;;;;;5053915;28;20932;-62
2023/03/17 01:54:51;;;;;;;5.05;4.65;;;;;;;;;;5036896;28;20252;-61
2023/03/17 01:57:22;;;;;;;5.57;5.07;;;;;;;;;;5053791;28;20621;-62
2023/03/17 02:00:00;;;;;;;5.40;4.90;;;;;;;;;;5054158;28;20833;-61
2023/03/17 02:02:29;;;;;;;5.50;4.78;;;;;;;;;;5053521;28;20233;-61
2023/03/17 02:04:56;;;;;;;4.82;4.55;;;;;;;;;;5054199;28;20256;-61
2023/03/17 02:07:26;;;;;;;5.30;4.80;;;;;;;;;;5053415;28;20177;-61
2023/03/17 02:09:55;;;;;;;4.97;4.47;;;;;;;;;;5036723;28;20208;-62
2023/03/17 02:12:23;;;;;;;5.63;5.32;;;;;;;;;;5053711;28;20270;-62
2023/03/17 02:14:50;;;;;;;5.30;4.90;;;;;;;;;;5053779;28;20231;-61
2023/03/17 02:17:16;;;;;;;5.15;4.75;;;;;;;;;;5052875;28;20509;-62
2023/03/17 02:19:42;;;;;;;5.20;4.80;;;;;;;;;;5053707;28;20201;-62
2023/03/17 02:22:09;;;;;;;6.07;5.40;;;;;;;;;;5053582;28;20185;-63
2023/03/17 02:24:35;;;;;;;5.15;4.65;;;;;;;;;;5053456;28;20386;-62
2023/03/17 02:27:13;;;;;;;5.00;4.70;;;;;;;;;;5053769;28;20271;-62
2023/03/17 02:29:40;;;;;;;7.43;4.70;;;;;;;;;;5052829;28;20207;-62
2023/03/17 02:32:06;;;;;;;5.30;5.00;;;;;;;;;;5053636;28;20196;-61
2023/03/17 02:34:33;;;;;;;5.40;5.00;;;;;;;;;;5053408;28;20461;-62
2023/03/17 02:36:59;;;;;;;5.68;5.30;;;;;;;;;;5053443;28;20664;-62
2023/03/17 02:39:25;;;;;;;7.63;5.00;;;;;;;;;;5053594;28;20647;-62
2023/03/17 02:41:51;;;;;;;5.30;5.00;;;;;;;;;;5053701;28;20206;-62
2023/03/17 02:44:17;;;;;;;7.90;5.53;;;;;;;;;;5053128;28;20220;-62
2023/03/17 02:46:43;;;;;;;5.20;4.90;;;;;;;;;;5053163;28;20227;-62
2023/03/17 02:49:13;;;;;;;5.43;4.93;;;;;;;;;;5053313;28;20444;-62
2023/03/17 02:51:39;;;;;;;5.95;4.72;;;;;;;;;;5052687;28;20208;-62
2023/03/17 02:54:05;;;;;;;8.80;5.00;;;;;;;;;;5052315;28;20616;-62
2023/03/17 02:56:31;;;;;;;5.10;4.80;;;;;;;;;;5053694;28;20180;-62
2023/03/17 02:58:59;;;;;;;4.55;4.22;;;;;;;;;;5052952;28;20337;-61
2023/03/17 03:01:26;;;;;;;4.05;3.88;;;;;;;;;;5034773;28;20628;-62
2023/03/17 03:03:52;;;;;;;5.38;4.95;;;;;;;;;;5052581;28;20195;-61
2023/03/17 03:06:18;;;;;;;4.57;4.28;;;;;;;;;;5052532;28;20183;-61
2023/03/17 03:08:46;;;;;;;4.88;4.53;;;;;;;;;;5034921;28;20195;-63
2023/03/17 03:11:15;;;;;;;5.32;4.90;;;;;;;;;;5052790;28;20204;-62
2023/03/17 03:13:41;;;;;;;5.18;4.88;;;;;;;;;;5034891;28;20711;-62
2023/03/17 03:16:07;;;;;;;7.82;5.00;;;;;;;;;;5052611;28;20192;-62
2023/03/17 03:18:33;;;;;;;5.50;5.00;;;;;;;;;;5052428;28;20177;-62
2023/03/17 03:21:00;;;;;;;5.87;4.47;;;;;;;;;;5052458;28;20179;-63
2023/03/17 03:23:28;;;;;;;4.63;4.35;;;;;;;;;;5052593;28;20774;-62
2023/03/17 03:25:54;;;;;;;8.48;4.70;;;;;;;;;;5033843;28;20615;-62
2023/03/17 03:28:23;;;;;;;5.28;4.30;;;;;;;;;;5034051;28;20187;-62
2023/03/17 03:30:52;;;;;;;4.82;4.35;;;;;;;;;;5051999;28;20271;-62
2023/03/17 03:33:20;;;;;;;7.70;5.30;;;;;;;;;;5051275;28;20357;-62
2023/03/17 03:35:46;;;;;;;5.50;5.00;;;;;;;;;;5051381;28;20594;-61
2023/03/17 03:38:13;;;;;;;4.97;4.65;;;;;;;;;;5050735;28;20261;-62
2023/03/17 03:40:39;;;;;;;5.50;5.10;;;;;;;;;;5051388;28;20235;-62
2023/03/17 03:43:05;;;;;;;5.50;4.80;;;;;;;;;;5052338;28;20220;-62
2023/03/17 03:45:31;;;;;;;4.68;4.45;;;;;;;;;;5052103;28;20949;-62
2023/03/17 03:48:00;;;;;;;8.98;4.70;;;;;;;;;;5052429;28;20595;-61
2023/03/17 03:50:26;;;;;;;5.00;4.70;;;;;;;;;;5052261;28;20259;-61
2023/03/17 03:52:52;;;;;;;5.10;4.80;;;;;;;;;;5034509;28;20283;-61
2023/03/17 03:55:18;;;;;;;4.97;4.47;;;;;;;;;;5052053;28;20517;-61
2023/03/17 03:57:44;;;;;;;4.68;4.40;;;;;;;;;;5034232;28;20418;-62
2023/03/17 04:00:12;;;;;;;6.50;4.88;;;;;;;;;;5052172;28;20177;-61
2023/03/17 04:02:43;;;;;;;6.22;5.10;;;;;;;;;;5052345;28;20227;-61
2023/03/17 04:05:10;;;;;;;5.32;4.90;;;;;;;;;;5052215;28;20199;-62
2023/03/17 04:07:36;;;;;;;5.00;4.70;;;;;;;;;;5052097;28;20204;-61
2023/03/17 04:10:03;;;;;;;5.13;4.72;;;;;;;;;;5052214;28;20550;-61
2023/03/17 04:12:31;;;;;;;4.70;4.40;;;;;;;;;;5051614;28;20709;-62
2023/03/17 04:14:57;;;;;;;5.57;5.15;;;;;;;;;;5034856;28;20172;-61
2023/03/17 04:17:26;;;;;;;5.65;5.15;;;;;;;;;;5052272;28;20200;-62
2023/03/17 04:19:54;;;;;;;5.15;4.82;;;;;;;;;;5052069;28;20260;-61
2023/03/17 04:22:20;;;;;;;5.25;4.82;;;;;;;;;;5051744;28;20675;-63
2023/03/17 04:24:46;;;;;;;5.80;5.25;;;;;;;;;;5052452;28;20176;-62
2023/03/17 04:27:16;;;;;;;4.30;4.00;;;;;;;;;;5033941;28;20511;-62
2023/03/17 04:29:42;;;;;;;4.57;4.22;;;;;;;;;;5052461;28;20403;-62
2023/03/17 04:32:09;;;;;;;4.45;4.25;;;;;;;;;;5051696;28;20682;-61
2023/03/17 04:34:37;;;;;;;4.88;4.30;;;;;;;;;;5052182;28;20200;-61
2023/03/17 04:37:03;;;;;;;5.15;4.15;;;;;;;;;;5051711;28;20247;-61
2023/03/17 04:39:31;;;;;;;12.67;4.57;;;;;;;;;;5053285;28;20629;-61
2023/03/17 04:41:57;;;;;;;9.90;5.10;;;;;;;;;;5055932;28;20393;-61
2023/03/17 04:44:23;;;;;;;6.47;4.78;;;;;;;;;;5055255;28;20421;-61
2023/03/17 04:46:49;;;;;;;6.23;4.90;;;;;;;;;;5055934;28;20188;-62
2023/03/17 04:49:15;;;;;;;4.83;4.50;;;;;;;;;;5055469;28;20775;-62
2023/03/17 04:51:41;;;;;;;4.70;4.40;;;;;;;;;;5055839;28;20406;-61
2023/03/17 04:54:07;;;;;;;4.60;4.40;;;;;;;;;;5054899;28;20191;-62
2023/03/17 04:56:33;;;;;;;4.90;4.53;;;;;;;;;;5055807;28;20500;-62
2023/03/17 04:58:59;;;;;;;5.00;4.60;;;;;;;;;;5055137;28;20180;-61
2023/03/17 05:01:25;;;;;;;5.28;4.88;;;;;;;;;;5055329;28;20637;-61
2023/03/17 05:03:52;;;;;;;4.72;4.53;;;;;;;;;;5055182;28;20194;-61
2023/03/17 05:06:18;;;;;;;4.28;4.13;;;;;;;;;;5055351;28;20172;-62
2023/03/17 05:08:44;;;;;;;7.28;3.80;;;;;;;;;;5055522;28;20164;-62
2023/03/17 05:11:12;;;;;;;10.38;7.18;;;;;;;;;;5054934;28;20195;-62
2023/03/17 05:13:39;;;;;;;10.30;8.25;;;;;;;;;;5055323;28;20254;-62
2023/03/17 05:16:06;;;;;;;8.45;7.65;;;;;;;;;;5055088;28;20195;-62
2023/03/17 05:18:32;;;;;;;16.73;7.60;;;;;;;;;;5055290;28;20189;-62
2023/03/17 05:20:59;;;;;;;9.10;8.20;;;;;;;;;;5055260;28;20658;-62
2023/03/17 05:23:25;;;;;;;60.50;37.90;;;;;;;;;;5055091;28;20675;-62
2023/03/17 05:25:51;;;;;;;35.80;27.02;;;;;;;;;;5037494;28;20188;-62
2023/03/17 05:28:18;;;;;;;9.10;8.20;;;;;;;;;;5055180;28;20553;-62
2023/03/17 05:30:44;;;;;;;7.35;6.75;;;;;;;;;;5055236;28;20275;-61
2023/03/17 05:33:11;;;;;;;15.40;13.63;;;;;;;;;;5054923;28;20204;-62
2023/03/17 05:35:37;;;;;;;10.60;9.52;;;;;;;;;;5054806;28;20655;-62
2023/03/17 05:38:03;;;;;;;5.22;4.72;;;;;;;;;;5055104;28;20658;-61
2023/03/17 05:40:29;;;;;;;4.43;4.13;;;;;;;;;;5054470;28;20193;-61
2023/03/17 05:42:55;;;;;;;4.30;4.00;;;;;;;;;;5053954;28;20481;-61
2023/03/17 05:45:21;;;;;;;5.13;4.72;;;;;;;;;;5054476;28;20586;-62
2023/03/17 05:47:47;;;;;;;5.07;4.30;;;;;;;;;;5054503;28;20183;-61
2023/03/17 05:50:13;;;;;;;4.77;4.47;;;;;;;;;;5053484;28;20399;-62
2023/03/17 05:52:39;;;;;;;6.70;5.68;;;;;;;;;;5053862;28;20470;-62
2023/03/17 05:55:06;;;;;;;9.15;8.25;;;;;;;;;;5054058;28;20180;-62
2023/03/17 05:58:09;;;;;;;6.38;5.90;;;;;;;;;;5054198;28;20199;-62
2023/03/17 06:00:55;;;;;;;8.65;5.93;;;;;;;;;;5048922;28;20200;-62
2023/03/17 06:03:21;;;;;;;4.15;3.95;;;;;;;;;;5036405;28;20208;-62
2023/03/17 06:05:47;;;;;;;5.30;4.87;;;;;;;;;;5054250;28;20635;-62
2023/03/17 06:08:13;;;;;;;4.85;4.35;;;;;;;;;;5036193;28;20442;-61
2023/03/17 06:10:41;;;;;;;5.30;4.80;;;;;;;;;;5053964;28;20230;-62
2023/03/17 06:13:07;;;;;;;3.78;3.58;;;;;;;;;;5053788;28;20211;-62
2023/03/17 06:15:35;;;;;;;4.35;3.90;;;;;;;;;;5054115;28;20592;-63
2023/03/17 06:18:03;;;;;;;4.00;3.80;;;;;;;;;;5036245;28;20639;-62
2023/03/17 06:20:30;;;;;;;5.50;5.10;;;;;;;;;;5053947;28;20172;-62
2023/03/17 06:22:56;;;;;;;5.10;4.47;;;;;;;;;;5054130;28;20177;-62
2023/03/17 06:25:22;;;;;;;6.37;5.90;;;;;;;;;;5053099;28;20219;-61
2023/03/17 06:27:51;;;;;;;7.47;6.88;;;;;;;;;;5053868;28;20528;-62
2023/03/17 06:30:20;;;;;;;10.25;8.05;;;;;;;;;;5053105;28;20223;-62
2023/03/17 06:32:49;;;;;;;7.03;6.38;;;;;;;;;;5053323;28;20200;-62
2023/03/17 06:35:15;;;;;;;7.68;6.90;;;;;;;;;;5053706;28;20256;-61
2023/03/17 06:37:41;;;;;;;5.87;5.43;;;;;;;;;;5053600;28;20200;-61
2023/03/17 06:40:11;;;;;;;7.93;5.18;;;;;;;;;;5054000;28;20453;-61
2023/03/17 06:42:37;;;;;;;5.22;4.70;;;;;;;;;;5053438;28;20179;-63
2023/03/17 06:45:05;;;;;;;9.30;4.60;;;;;;;;;;5053554;28;20267;-61
2023/03/17 06:47:32;;;;;;;5.22;4.45;;;;;;;;;;5053287;28;20431;-62
2023/03/17 06:49:58;;;;;;;9.65;4.80;;;;;;;;;;5053085;28;20195;-63
2023/03/17 06:52:25;;;;;;;5.80;5.50;;;;;;;;;;5052812;28;20220;-63
2023/03/17 06:54:51;;;;;;;6.40;5.80;;;;;;;;;;5053021;28;20913;-61
2023/03/17 06:57:17;;;;;;;8.70;6.47;;;;;;;;;;5052865;28;20185;-62
2023/03/17 06:59:44;;;;;;;15.87;9.80;;;;;;;;;;5052535;28;21014;-62
2023/03/17 07:02:10;;;;;;;26.40;15.73;;;;;;;;;;5052820;28;20392;-63
2023/03/17 07:04:39;;;;;;;23.23;15.13;;;;;;;;;;5052958;28;20215;-61
2023/03/17 07:07:07;;;;;;;13.40;9.63;;;;;;;;;;5053064;28;20292;-61
2023/03/17 07:09:36;;;;;;;6.35;5.72;;;;;;;;;;5052666;28;20227;-61
2023/03/17 07:12:04;;;;;;;4.70;4.43;;;;;;;;;;5052846;28;20740;-61
2023/03/17 07:14:34;;;;;;;5.20;4.80;;;;;;;;;;5052808;28;20211;-61
2023/03/17 07:17:00;;;;;;;5.10;4.78;;;;;;;;;;5034781;28;20195;-60
2023/03/17 07:19:26;;;;;;;7.70;4.80;;;;;;;;;;5053027;28;20265;-61
2023/03/17 07:21:54;;;;;;;4.33;4.00;;;;;;;;;;5052634;28;20176;-62
2023/03/17 07:24:21;;;;;;;4.27;4.07;;;;;;;;;;5034493;28;20451;-62
2023/03/17 07:26:49;;;;;;;4.50;4.10;;;;;;;;;;5052691;28;20459;-63
2023/03/17 07:29:16;;;;;;;3.90;3.70;;;;;;;;;;5034523;28;20172;-63
2023/03/17 07:31:42;;;;;;;5.27;4.30;;;;;;;;;;5052188;28;20483;-62
2023/03/17 07:34:11;;;;;;;5.20;4.90;;;;;;;;;;5034451;28;20415;-62
2023/03/17 07:36:37;;;;;;;5.07;4.67;;;;;;;;;;5034723;28;20409;-62
2023/03/17 07:39:04;;;;;;;5.70;5.40;;;;;;;;;;5053060;28;20381;-62
2023/03/17 07:41:30;;;;;;;7.27;5.97;;;;;;;;;;5052407;28;20382;-62
2023/03/17 07:43:56;;;;;;;5.13;4.87;;;;;;;;;;5051726;28;20429;-62
2023/03/17 07:46:22;;;;;;;5.70;5.30;;;;;;;;;;5052290;28;20983;-63
2023/03/17 07:48:48;;;;;;;7.87;5.30;;;;;;;;;;5034371;28;20471;-63
2023/03/17 07:51:16;;;;;;;6.57;5.33;;;;;;;;;;5052461;28;20418;-62
2023/03/17 07:53:43;;;;;;;6.07;5.57;;;;;;;;;;5052144;28;20473;-62
2023/03/17 07:56:10;;;;;;;7.63;6.93;;;;;;;;;;5052180;28;20893;-62
2023/03/17 07:58:36;;;;;;;6.03;5.20;;;;;;;;;;5052282;28;20428;-62
2023/03/17 08:01:03;;;;;;;6.63;5.67;;;;;;;;;;5052189;28;20456;-63
2023/03/17 08:03:30;;;;;;;6.13;5.53;;;;;;;;;;5052011;28;20415;-62
2023/03/17 08:05:56;;;;;;;6.77;6.27;;;;;;;;;;5051517;28;20422;-62
2023/03/17 08:08:23;;;;;;;8.73;6.90;;;;;;;;;;5051926;28;20407;-62
2023/03/17 08:10:50;;;;;;;5.50;4.87;;;;;;;;;;5051529;28;20852;-62
2023/03/17 08:13:16;;;;;;;6.60;6.10;;;;;;;;;;5051438;28;20458;-63
2023/03/17 08:15:42;;;;;;;6.23;5.83;;;;;;;;;;5055929;28;20431;-63
2023/03/17 08:18:11;;;;;;;7.00;6.40;;;;;;;;;;5055736;28;20411;-62
2023/03/17 08:20:37;;;;;;;6.50;6.00;;;;;;;;;;5056122;28;20421;-62
2023/03/17 08:23:04;;;;;;;6.40;5.80;;;;;;;;;;5056160;28;20435;-62
2023/03/17 08:25:30;;;;;;;7.00;5.47;;;;;;;;;;5056297;28;20403;-61
2023/03/17 08:27:59;;;;;;;7.27;5.27;;;;;;;;;;5056110;28;20802;-61
2023/03/17 08:30:28;;;;;;;7.50;6.13;;;;;;;;;;5055282;28;20564;-61
2023/03/17 08:32:54;;;;;;;6.80;5.83;;;;;;;;;;5055108;28;20485;-61
2023/03/17 08:35:20;;;;;;;6.70;6.10;;;;;;;;;;5037924;28;20415;-63
2023/03/17 08:37:48;;;;;;;6.10;5.70;;;;;;;;;;5055864;28;20445;-62
2023/03/17 08:40:16;;;;;;;7.13;6.10;;;;;;;;;;5056050;28;20442;-62
2023/03/17 08:42:42;;;;;;;6.37;5.87;;;;;;;;;;5055734;28;20458;-66
2023/03/17 08:45:09;;;;;;;7.17;6.57;;;;;;;;;;5055677;28;20898;-65
2023/03/17 08:47:36;;;;;;;6.70;6.20;;;;;;;;;;5055962;28;20415;-65
2023/03/17 08:50:04;;;;;;;7.00;6.43;;;;;;;;;;5055680;28;20422;-66
2023/03/17 08:52:30;;;;;;;7.93;6.27;;;;;;;;;;5055884;28;20961;-66
2023/03/17 08:54:56;;;;;;;11.30;6.30;;;;;;;;;;5055881;28;20450;-66
2023/03/17 08:57:23;;;;;;;7.03;6.53;;;;;;;;;;5056007;28;20889;-66
2023/03/17 08:59:49;;;;;;;6.90;6.30;;;;;;;;;;5055829;28;20443;-66
2023/03/17 09:02:15;;;;;;;8.10;6.80;;;;;;;;;;5055718;28;20418;-65
2023/03/17 09:04:42;;;;;;;6.53;6.13;;;;;;;;;;5055803;28;20466;-65
2023/03/17 09:07:09;;;;;;;9.63;7.23;;;;;;;;;;5055711;28;20410;-65
2023/03/17 09:09:35;;;;;;;11.43;7.20;;;;;;;;;;5037756;28;20972;-66
2023/03/17 09:12:03;;;;;;;7.33;6.73;;;;;;;;;;5055344;28;20453;-66
2023/03/17 09:14:29;;;;;;;7.33;6.73;;;;;;;;;;5055577;28;20521;-66
2023/03/17 09:16:57;;;;;;;7.03;6.40;;;;;;;;;;5055463;28;20453;-66
2023/03/17 09:19:23;;;;;;;11.53;7.30;;;;;;;;;;5055414;28;20474;-66
2023/03/17 09:21:52;;;;;;;7.10;6.40;;;;;;;;;;5055465;28;20844;-66
2023/03/17 09:24:19;;;;;;;6.03;5.63;;;;;;;;;;5055193;28;20532;-66
2023/03/17 09:26:45;;;;;;;13.03;6.90;;;;;;;;;;5054995;28;20421;-66
2023/03/17 09:29:11;;;;;;;6.77;6.27;;;;;;;;;;5054982;28;20527;-66
2023/03/17 09:31:38;;;;;;;7.73;7.03;;;;;;;;;;5055246;28;20411;-65
2023/03/17 09:34:05;;;;;;;7.23;6.40;;;;;;;;;;5055016;28;20478;-66
2023/03/17 09:36:32;;;;;;;7.50;6.77;;;;;;;;;;5055217;28;20464;-66
2023/03/17 09:38:58;;;;;;;6.60;6.20;;;;;;;;;;5055141;28;20425;-66
2023/03/17 09:41:44;;;;;;;7.80;6.77;;;;;;;;;;5055034;28;20442;-66
2023/03/17 09:44:13;;;;;;;7.33;6.70;;;;;;;;;;5004694;28;20474;-65
2023/03/17 09:46:39;;;;;;;8.20;7.00;;;;;;;;;;5055086;28;20882;-66
2023/03/17 09:49:11;;;;;;;7.03;6.47;;;;;;;;;;5054928;28;20445;-66
2023/03/17 09:51:38;;;;;;;7.60;7.03;;;;;;;;;;5037280;28;20842;-67
2023/03/17 09:54:06;;;;;;;7.17;6.57;;;;;;;;;;5054750;28;20804;-66
2023/03/17 09:56:34;;;;;;;10.63;7.00;;;;;;;;;;5054629;28;20424;-66
2023/03/17 09:59:35;;;;;;;6.60;6.00;;;;;;;;;;5036880;28;20455;-66
2023/03/17 10:02:01;;;;;;;7.33;6.50;;;;;;;;;;4954569;29;20484;-65
2023/03/17 10:04:27;;;;;;;7.07;6.47;;;;;;;;;;5034236;28;20442;-66
2023/03/17 10:07:00;;;;;;;14.13;7.07;;;;;;;;;;5054530;28;20779;-66
2023/03/17 10:09:34;;;;;;;8.53;7.77;;;;;;;;;;5054496;28;20836;-65
2023/03/17 10:12:06;;;;;;;8.40;7.20;;;;;;;;;;5054191;28;20408;-65
2023/03/17 10:14:52;;;;;;;9.60;7.00;;;;;;;;;;5054405;28;20466;-65
2023/03/17 10:17:23;;;;;;;6.53;6.00;;;;;;;;;;5054492;28;20953;-65
2023/03/17 10:19:58;;;;;;;7.87;7.07;;;;;;;;;;5054322;28;20415;-66
2023/03/17 10:22:28;;;;;;;6.67;5.80;;;;;;;;;;5054396;28;20893;-66
2023/03/17 10:24:57;;;;;;;8.60;5.97;;;;;;;;;;5054216;28;20438;-66
2023/03/17 10:27:23;;;;;;;7.27;6.60;;;;;;;;;;5054133;28;20430;-65
2023/03/17 10:29:49;;;;;;;7.93;6.03;;;;;;;;;;5054249;28;20454;-65
2023/03/17 10:32:16;;;;;;;7.20;6.50;;;;;;;;;;5036052;28;20569;-65
2023/03/17 10:34:42;;;;;;;6.70;6.10;;;;;;;;;;5054032;28;20525;-66
2023/03/17 10:37:18;;;;;;;6.47;5.90;;;;;;;;;;5053008;28;20419;-66
2023/03/17 10:39:51;;;;;;;5.20;4.70;;;;;;;;;;5053978;28;20433;-65
2023/03/17 10:42:17;;;;;;;5.07;4.73;;;;;;;;;;5053447;28;20507;-65
2023/03/17 10:44:58;;;;;;;5.70;5.30;;;;;;;;;;5053790;28;20466;-65
2023/03/17 10:47:44;;;;;;;8.00;5.00;;;;;;;;;;5053595;28;20422;-65
2023/03/17 10:50:27;;;;;;;4.63;4.33;;;;;;;;;;5053551;28;20421;-66
2023/03/17 10:52:56;;;;;;;8.30;4.40;;;;;;;;;;5054029;28;20504;-67
2023/03/17 10:55:27;;;;;;;4.67;4.47;;;;;;;;;;5053552;28;20422;-67
2023/03/17 10:58:14;;;;;;;6.30;5.70;;;;;;;;;;5035822;28;20751;-67
2023/03/17 11:00:48;;;;;;;5.77;5.30;;;;;;;;;;5053174;28;20439;-66
2023/03/17 11:03:17;;;;;;;5.07;4.70;;;;;;;;;;5053284;28;20917;-67
2023/03/17 11:05:54;;;;;;;5.10;4.60;;;;;;;;;;5053329;28;20885;-66
2023/03/17 11:08:20;;;;;;;4.73;4.40;;;;;;;;;;5053444;28;20426;-66
2023/03/17 11:10:53;;;;;;;5.40;4.50;;;;;;;;;;5053074;28;20974;-66
2023/03/17 11:13:19;;;;;;;6.07;5.47;;;;;;;;;;5053280;28;20454;-66
2023/03/17 11:16:06;;;;;;;5.33;4.80;;;;;;;;;;5053007;28;20510;-66
2023/03/17 11:18:35;;;;;;;5.47;5.13;;;;;;;;;;5053164;28;20409;-66
2023/03/17 11:21:12;;;;;;;10.70;5.33;;;;;;;;;;5052972;28;20482;-66
2023/03/17 11:23:46;;;;;;;4.20;3.90;;;;;;;;;;5052990;28;20506;-66
2023/03/17 11:26:17;;;;;;;4.77;4.43;;;;;;;;;;5052905;28;20439;-66
2023/03/17 11:28:47;;;;;;;3.47;3.37;;;;;;;;;;5035219;28;20401;-66
2023/03/17 11:31:18;;;;;;;4.63;4.27;;;;;;;;;;5052931;28;21042;-66
2023/03/17 11:33:57;;;;;;;3.77;3.40;;;;;;;;;;5052957;28;20514;-66
2023/03/17 11:36:23;;;;;;;3.47;3.37;;;;;;;;;;5052815;28;20926;-67
2023/03/17 11:39:10;;;;;;;4.50;4.20;;;;;;;;;;5052879;28;20404;-66
2023/03/17 11:41:43;;;;;;;6.30;4.23;;;;;;;;;;5052193;28;20447;-66
2023/03/17 11:44:34;;;;;;;4.50;4.30;;;;;;;;;;5052463;28;20451;-67
2023/03/17 11:47:11;;;;;;;7.43;4.30;;;;;;;;;;5052763;28;20427;-67
2023/03/17 11:49:38;;;;;;;5.33;4.57;;;;;;;;;;5052846;28;20835;-66
2023/03/17 11:52:11;;;;;;;5.40;4.33;;;;;;;;;;5052398;28;20439;-66
2023/03/17 11:54:43;;;;;;;6.03;3.80;;;;;;;;;;5052537;28;20853;-67
2023/03/17 11:57:14;;;;;;;4.27;3.90;;;;;;;;;;5052848;28;20422;-67
2023/03/17 11:59:59;;;;;;;3.90;3.80;;;;;;;;;;5052253;28;20480;-67
2023/03/17 12:02:28;;;;;;;5.70;4.00;;;;;;;;;;5052624;28;20395;-67
2023/03/17 12:04:56;;;;;;;3.73;3.53;;;;;;;;;;5052446;28;20494;-67
2023/03/17 12:07:26;;;;;;;3.83;3.63;;;;;;;;;;5052699;28;20472;-67
2023/03/17 12:10:16;;;;;;;4.27;3.90;;;;;;;;;;5052868;28;20392;-67
2023/03/17 12:12:45;;;;;;;3.53;3.40;;;;;;;;;;5040065;28;20472;-66
2023/03/17 12:15:17;;;;;;;4.00;3.80;;;;;;;;;;5052245;28;20427;-67
2023/03/17 12:17:50;;;;;;;3.90;3.70;;;;;;;;;;5052234;28;20462;-66
2023/03/17 12:20:19;;;;;;;3.97;3.47;;;;;;;;;;5034502;28;20431;-67
2023/03/17 12:22:50;;;;;;;3.20;3.10;;;;;;;;;;5052046;28;20448;-66
2023/03/17 12:25:24;;;;;;;3.57;3.33;;;;;;;;;;5051922;28;20430;-66
2023/03/17 12:27:56;;;;;;;3.77;3.47;;;;;;;;;;5052291;28;20749;-66
2023/03/17 12:30:28;;;;;;;4.93;3.20;;;;;;;;;;5052122;28;20924;-66
2023/03/17 12:32:57;;;;;;;3.33;3.13;;;;;;;;;;5052439;28;20544;-66
2023/03/17 12:35:26;;;;;;;4.53;4.23;;;;;;;;;;5052043;28;20805;-67
2023/03/17 12:37:53;;;;;;;6.47;5.93;;;;;;;;;;5052254;28;20417;-66
2023/03/17 12:40:23;;;;;;;7.63;7.00;;;;;;;;;;5052128;28;20909;-66
2023/03/17 12:42:51;;;;;;;4.40;3.23;;;;;;;;;;5051075;28;20412;-65
2023/03/17 12:45:17;;;;;;;8.13;3.93;;;;;;;;;;5052284;28;20450;-66
2023/03/17 12:48:01;;;;;;;3.40;3.30;;;;;;;;;;5052260;28;20422;-67
2023/03/17 12:50:46;;;;;;;3.57;3.37;;;;;;;;;;5051799;28;20396;-66
2023/03/17 12:53:15;;;;;;;4.43;4.07;;;;;;;;;;5051588;28;20466;-67
2023/03/17 12:55:44;;;;;;;4.10;3.90;;;;;;;;;;5051634;28;20393;-66
2023/03/17 12:58:28;;;;;;;4.90;4.40;;;;;;;;;;5052063;28;20415;-66
2023/03/17 13:01:21;;;;;;;4.20;3.90;;;;;;;;;;5053969;28;20434;-67
2023/03/17 13:04:06;;;;;;;4.50;4.13;;;;;;;;;;5017822;28;20441;-67
2023/03/17 13:06:47;;;;;;;5.80;4.10;;;;;;;;;;5037262;28;20429;-66
2023/03/17 13:09:28;;;;;;;4.23;3.93;;;;;;;;;;5055467;28;20413;-67
2023/03/17 13:11:56;;;;;;;4.50;4.20;;;;;;;;;;5055115;28;20487;-66
2023/03/17 13:14:41;;;;;;;5.67;3.87;;;;;;;;;;5055353;28;20447;-66
2023/03/17 13:17:17;;;;;;;3.97;3.77;;;;;;;;;;5055172;28;20895;-66
2023/03/17 13:19:55;;;;;;;3.83;3.63;;;;;;;;;;5055368;28;20764;-66
2023/03/17 13:22:21;;;;;;;7.20;4.13;;;;;;;;;;5055250;28;20469;-66
2023/03/17 13:24:47;;;;;;;4.20;3.80;;;;;;;;;;5055207;28;20444;-66
2023/03/17 13:27:32;;;;;;;3.63;3.43;;;;;;;;;;5054795;28;20438;-65
2023/03/17 13:29:58;;;;;;;3.70;3.40;;;;;;;;;;5055151;28;20770;-65
2023/03/17 13:32:25;;;;;;;4.67;4.27;;;;;;;;;;5054847;28;20565;-66
2023/03/17 13:35:00;;;;;;;5.40;4.77;;;;;;;;;;5055186;28;20761;-65
2023/03/17 13:37:31;;;;;;;3.10;2.90;;;;;;;;;;5054690;28;20406;-65
2023/03/17 13:40:16;;;;;;;3.00;2.90;;;;;;;;;;5054817;28;20422;-66
2023/03/17 13:42:57;;;;;;;4.30;2.43;;;;;;;;;;5054830;28;20433;-66
2023/03/17 13:45:23;;;;;;;4.97;2.87;;;;;;;;;;5055149;28;20398;-65
2023/03/17 13:47:50;;;;;;;2.83;2.73;;;;;;;;;;5054814;28;20480;-66
2023/03/17 13:50:16;;;;;;;2.50;2.47;;;;;;;;;;5054633;28;20391;-66
2023/03/17 13:52:42;;;;;;;6.10;2.00;;;;;;;;;;5054473;28;20490;-65
2023/03/17 13:55:19;;;;;;;2.67;2.57;;;;;;;;;;5054632;28;20489;-65
2023/03/17 13:58:04;;;;;;;3.20;3.03;;;;;;;;;;5054511;28;20439;-65
2023/03/17 14:00:31;;;;;;;3.33;2.77;;;;;;;;;;5054446;28;20807;-67
2023/03/17 14:03:06;;;;;;;4.83;2.27;;;;;;;;;;5054543;28;20434;-66
2023/03/17 14:05:36;;;;;;;2.37;2.27;;;;;;;;;;5054595;28;20613;-65
2023/03/17 14:08:14;;;;;;;1.60;1.60;;;;;;;;;;5054281;28;20802;-66
2023/03/17 14:10:42;;;;;;;8.43;1.53;;;;;;;;;;5054455;28;20404;-65
2023/03/17 14:13:20;;;;;;;2.30;2.20;;;;;;;;;;5052980;28;20467;-65
2023/03/17 14:15:46;;;;;;;2.43;2.23;;;;;;;;;;5054347;28;20417;-66
2023/03/17 14:18:19;;;;;;;8.70;2.50;;;;;;;;;;5054445;28;20437;-66
2023/03/17 14:20:52;;;;;;;6.60;3.33;;;;;;;;;;5054108;28;20455;-66
2023/03/17 14:23:18;;;;;;;7.70;3.87;;;;;;;;;;5054160;28;20440;-66
2023/03/17 14:25:44;;;;;;;2.27;2.17;;;;;;;;;;5054140;28;20921;-64
2023/03/17 14:28:15;;;;;;;2.37;2.17;;;;;;;;;;5053879;28;20491;-65
2023/03/17 14:30:50;;;;;;;2.13;2.03;;;;;;;;;;5053927;28;20425;-67
2023/03/17 14:33:23;;;;;;;5.97;2.27;;;;;;;;;;5053967;28;20474;-66
2023/03/17 14:35:52;;;;;;;5.17;4.20;;;;;;;;;;5054262;28;20481;-66
2023/03/17 14:38:25;;;;;;;2.73;2.63;;;;;;;;;;5053692;28;20524;-66
2023/03/17 14:40:59;;;;;;;4.23;2.60;;;;;;;;;;5054013;28;20410;-66
2023/03/17 14:43:25;;;;;;;3.47;2.30;;;;;;;;;;5053926;28;20535;-66
2023/03/17 14:45:53;;;;;;;2.63;1.53;;;;;;;;;;5053721;28;20918;-66
2023/03/17 14:48:25;;;;;;;2.70;1.77;;;;;;;;;;5036085;28;20513;-66
2023/03/17 14:51:04;;;;;;;9.00;1.70;;;;;;;;;;5053696;28;20402;-66
2023/03/17 14:53:41;;;;;;;2.07;1.90;;;;;;;;;;5053360;28;20525;-66
2023/03/17 14:56:10;;;;;;;1.80;1.70;;;;;;;;;;5053323;28;20501;-67